logo
Search for airport 
image banner adimage banner adimage banner ad
image banner ad

FAEDEN - Edenburg

Located in , South Africa

ICAO - , IATA -

Data provided by Airmate  

General information

Coordinates: S29°44'46" E25°55'13"
Elevation is 4507 feet MSL.
 
View others Airports in Free State

Operational data

Special qualification required
Current time UTC:
Current local time:
Weather at : - ( 0 km )
METAR: KM19 180827Z AUTO 18007KT 5SM BR BKN006 19/19 A2997 RMK AO2 $
View NOTAMs / SUP AIP / TFR affecting this airport [VIEW]
Communications frequencies: [VIEW]

Runways:

RWY identifierQFULength (ft)Width (ft)SurfaceLDA (ft)
0462°328166GRASS
22242°328166GRASS
0972°300266GRASS
27252°300266GRASS
16144°234666GRASS
34324°234666GRASS

Airport contact information

Address: South Africa

Satellite view of FAEDEN